createdAt,value
2023-04-26T00:00:09.364Z,78.51
2023-04-26T00:01:09.183Z,78.51
2023-04-26T00:02:09.175Z,78.30
2023-04-26T00:03:09.345Z,78.41
2023-04-26T00:04:09.426Z,78.51
2023-04-26T00:05:09.581Z,78.51
2023-04-26T00:06:09.135Z,78.41
2023-04-26T00:07:09.133Z,78.51
2023-04-26T00:08:09.143Z,78.82
2023-04-26T00:09:09.103Z,78.82
2023-04-26T00:10:09.100Z,78.82
2023-04-26T00:11:09.100Z,78.82
2023-04-26T00:12:09.083Z,78.92
2023-04-26T00:13:09.088Z,78.61
2023-04-26T00:14:09.065Z,79.03
2023-04-26T00:15:09.070Z,78.96
2023-04-26T00:16:09.127Z,78.86
2023-04-26T00:17:09.046Z,79.06
2023-04-26T00:18:09.071Z,79.06
2023-04-26T00:19:09.032Z,78.86
2023-04-26T00:20:09.016Z,78.72
2023-04-26T00:21:09.015Z,78.92
2023-04-26T00:22:08.995Z,79.06
2023-04-26T00:23:09.013Z,78.86
2023-04-26T00:24:08.989Z,78.82
2023-04-26T00:25:08.971Z,78.72
2023-04-26T00:26:08.973Z,78.96
2023-04-26T00:27:08.967Z,78.75
2023-04-26T00:28:08.986Z,78.86
2023-04-26T00:29:08.945Z,78.75
2023-04-26T00:30:08.976Z,78.86
2023-04-26T00:31:08.921Z,78.86
2023-04-26T00:32:09.034Z,78.86
2023-04-26T00:33:09.014Z,79.27
2023-04-26T00:34:08.893Z,79.27
2023-04-26T00:35:08.888Z,79.48
2023-04-26T00:36:08.882Z,79.48
2023-04-26T00:37:08.870Z,79.38
2023-04-26T00:38:08.887Z,78.92
2023-04-26T00:39:08.898Z,78.75
2023-04-26T00:40:08.836Z,78.96
2023-04-26T00:41:08.831Z,78.55
2023-04-26T00:42:08.816Z,78.96
2023-04-26T00:43:08.819Z,79.17
2023-04-26T00:44:08.797Z,78.96
2023-04-26T00:45:08.788Z,78.86
2023-04-26T00:46:08.817Z,78.86
2023-04-26T00:47:08.784Z,78.96
2023-04-26T00:48:08.832Z,78.65
2023-04-26T00:49:08.763Z,78.86
2023-04-26T00:50:08.743Z,78.44
2023-04-26T00:51:08.739Z,78.44
2023-04-26T00:52:08.724Z,78.75
2023-04-26T00:53:08.733Z,78.75
2023-04-26T00:54:08.710Z,79.06
2023-04-26T00:55:08.708Z,78.96
2023-04-26T00:56:08.759Z,79.27
2023-04-26T00:57:08.694Z,79.51
2023-04-26T00:58:08.696Z,79.51
2023-04-26T00:59:08.672Z,79.58
2023-04-26T01:00:08.668Z,79.51
2023-04-26T01:01:08.698Z,79.61
2023-04-26T01:02:08.697Z,79.51
2023-04-26T01:03:08.765Z,79.61
2023-04-26T01:04:08.760Z,79.72
2023-04-26T01:05:08.628Z,79.83
2023-04-26T01:06:08.617Z,79.61
2023-04-26T01:07:08.603Z,79.17
2023-04-26T01:08:08.610Z,78.86
2023-04-26T01:09:08.583Z,78.65
2023-04-26T01:10:08.588Z,79.27
2023-04-26T01:11:08.569Z,79.61
2023-04-26T01:12:08.580Z,79.51
2023-04-26T01:13:08.590Z,79.51
2023-04-26T01:14:08.565Z,79.83
2023-04-26T01:15:08.570Z,79.83
2023-04-26T01:16:08.615Z,79.83
2023-04-26T01:17:08.648Z,79.61
2023-04-26T01:18:08.552Z,79.48
2023-04-26T01:19:08.507Z,79.61
2023-04-26T01:20:08.498Z,79.41
2023-04-26T01:21:08.501Z,79.10
2023-04-26T01:22:08.487Z,79.17
2023-04-26T01:23:08.472Z,79.41
2023-04-26T01:24:08.492Z,79.72
2023-04-26T01:25:08.461Z,80.14
2023-04-26T01:26:08.450Z,79.61
2023-04-26T01:27:08.450Z,79.51
2023-04-26T01:28:08.458Z,79.51
2023-04-26T01:29:08.441Z,79.20
2023-04-26T01:30:08.418Z,79.20
2023-04-26T01:31:08.451Z,79.38
2023-04-26T01:32:08.410Z,79.30
2023-04-26T01:33:08.440Z,79.10
2023-04-26T01:34:08.399Z,79.51
2023-04-26T01:35:08.368Z,79.61
2023-04-26T01:36:08.367Z,79.20
2023-04-26T01:37:08.353Z,79.51
2023-04-26T01:38:08.347Z,79.41
2023-04-26T01:39:08.374Z,79.30
2023-04-26T01:40:08.343Z,78.65
2023-04-26T01:41:08.315Z,79.10
2023-04-26T01:42:08.308Z,79.20
2023-04-26T01:43:08.297Z,79.20
2023-04-26T01:44:08.312Z,79.41
2023-04-26T01:45:08.272Z,79.30
2023-04-26T01:46:08.296Z,79.41
2023-04-26T01:47:08.263Z,79.51
2023-04-26T01:48:08.341Z,79.72
2023-04-26T01:49:08.257Z,79.20
2023-04-26T01:50:08.231Z,79.06
2023-04-26T01:51:08.225Z,78.99
2023-04-26T01:52:08.208Z,78.89
2023-04-26T01:53:08.203Z,79.10
2023-04-26T01:54:08.223Z,79.30
2023-04-26T01:55:08.202Z,79.72
2023-04-26T01:56:08.187Z,79.61
2023-04-26T01:57:08.171Z,80.38
2023-04-26T01:58:08.162Z,80.38
2023-04-26T01:59:08.167Z,80.28
2023-04-26T02:00:08.150Z,79.93
2023-04-26T02:01:08.221Z,80.38
2023-04-26T02:02:08.160Z,80.69
2023-04-26T02:03:08.258Z,80.69
2023-04-26T02:04:08.150Z,80.69
2023-04-26T02:05:08.129Z,80.59
2023-04-26T02:06:08.077Z,80.38
2023-04-26T02:07:08.072Z,80.38
2023-04-26T02:08:08.069Z,80.49
2023-04-26T02:09:08.082Z,80.80
2023-04-26T02:10:08.070Z,80.69
2023-04-26T02:11:08.047Z,80.49
2023-04-26T02:12:08.029Z,80.38
2023-04-26T02:13:08.018Z,80.18
2023-04-26T02:14:08.052Z,80.28
2023-04-26T02:15:08.006Z,80.38
2023-04-26T02:16:08.066Z,80.38
2023-04-26T02:17:07.989Z,80.38
2023-04-26T02:18:08.041Z,80.38
2023-04-26T02:19:07.997Z,80.14
2023-04-26T02:20:07.962Z,80.28
2023-04-26T02:21:07.956Z,80.59
2023-04-26T02:22:07.955Z,80.90
2023-04-26T02:23:07.946Z,81.04
2023-04-26T02:24:07.944Z,80.83
2023-04-26T02:25:07.962Z,81.11
2023-04-26T02:26:07.925Z,81.21
2023-04-26T02:27:07.908Z,81.32
2023-04-26T02:28:07.897Z,81.21
2023-04-26T02:29:07.923Z,81.35
2023-04-26T02:30:07.886Z,81.35
2023-04-26T02:31:07.949Z,81.46
2023-04-26T02:32:07.870Z,81.11
2023-04-26T02:33:07.893Z,81.01
2023-04-26T02:34:07.920Z,81.04
2023-04-26T02:35:07.844Z,81.04
2023-04-26T02:36:07.843Z,81.11
2023-04-26T02:37:07.876Z,80.83
2023-04-26T02:38:07.826Z,81.11
2023-04-26T02:39:07.868Z,80.69
2023-04-26T02:40:07.798Z,81.11
2023-04-26T02:41:07.800Z,80.80
2023-04-26T02:42:07.802Z,80.49
2023-04-26T02:43:07.770Z,80.49
2023-04-26T02:44:07.811Z,80.49
2023-04-26T02:45:07.769Z,80.80
2023-04-26T02:46:07.750Z,80.28
2023-04-26T02:47:07.936Z,80.35
2023-04-26T02:48:07.791Z,80.28
2023-04-26T02:49:07.743Z,80.38
2023-04-26T02:50:07.756Z,80.49
2023-04-26T02:51:07.712Z,80.49
2023-04-26T02:52:07.695Z,80.90
2023-04-26T02:53:07.709Z,81.04
2023-04-26T02:54:07.708Z,81.04
2023-04-26T02:55:07.672Z,81.25
2023-04-26T02:56:07.667Z,81.15
2023-04-26T02:57:07.656Z,81.42
2023-04-26T02:58:07.655Z,81.15
2023-04-26T02:59:07.633Z,81.25
2023-04-26T03:00:07.641Z,80.80
2023-04-26T03:01:07.663Z,81.15
2023-04-26T03:02:07.715Z,80.94
2023-04-26T03:03:07.768Z,80.83
2023-04-26T03:04:07.951Z,80.83
2023-04-26T03:05:07.610Z,80.83
2023-04-26T03:06:07.640Z,80.83
2023-04-26T03:07:07.578Z,81.15
2023-04-26T03:08:07.558Z,81.11
2023-04-26T03:09:07.558Z,80.90
2023-04-26T03:10:07.581Z,80.90
2023-04-26T03:11:07.557Z,80.94
2023-04-26T03:12:07.556Z,80.94
2023-04-26T03:13:07.569Z,81.25
2023-04-26T03:14:07.554Z,81.25
2023-04-26T03:15:07.568Z,81.56
2023-04-26T03:16:07.581Z,81.15
2023-04-26T03:17:07.500Z,81.56
2023-04-26T03:18:07.558Z,81.25
2023-04-26T03:19:07.474Z,81.46
2023-04-26T03:20:07.501Z,81.15
2023-04-26T03:21:07.465Z,81.39
2023-04-26T03:22:07.459Z,81.25
2023-04-26T03:23:07.453Z,81.25
2023-04-26T03:24:08.443Z,81.35
2023-04-26T03:25:07.467Z,81.56
2023-04-26T03:26:07.438Z,81.67
2023-04-26T03:27:07.439Z,82.12
2023-04-26T03:28:07.408Z,81.77
2023-04-26T03:29:07.394Z,81.70
2023-04-26T03:30:07.406Z,82.01
2023-04-26T03:31:07.380Z,81.91
2023-04-26T03:32:07.537Z,82.64
2023-04-26T03:33:07.477Z,82.12
2023-04-26T03:34:07.352Z,82.29
2023-04-26T03:35:07.555Z,82.29
2023-04-26T03:36:07.349Z,82.08
2023-04-26T03:37:07.334Z,81.46
2023-04-26T03:38:07.321Z,81.77
2023-04-26T03:39:07.312Z,81.77
2023-04-26T03:40:07.347Z,81.46
2023-04-26T03:41:07.304Z,82.08
2023-04-26T03:42:07.288Z,82.22
2023-04-26T03:43:07.293Z,82.64
2023-04-26T03:44:07.285Z,82.32
2023-04-26T03:45:07.314Z,82.64
2023-04-26T03:46:07.354Z,82.64
2023-04-26T03:47:07.244Z,81.70
2023-04-26T03:48:07.298Z,82.43
2023-04-26T03:49:07.226Z,82.26
2023-04-26T03:50:07.248Z,81.74
2023-04-26T03:51:07.216Z,82.46
2023-04-26T03:52:07.222Z,82.30
2023-04-26T03:53:07.206Z,82.30
2023-04-26T03:54:07.182Z,82.20
2023-04-26T03:55:07.221Z,82.82
2023-04-26T03:56:07.168Z,82.51
2023-04-26T03:57:07.161Z,82.40
2023-04-26T03:58:07.151Z,82.23
2023-04-26T03:59:07.151Z,82.65
2023-04-26T04:00:07.196Z,82.54
2023-04-26T04:01:07.142Z,82.48
2023-04-26T04:02:07.153Z,82.65
2023-04-26T04:03:07.489Z,83.00
2023-04-26T04:04:07.248Z,83.10
2023-04-26T04:05:07.338Z,83.62
2023-04-26T04:06:07.081Z,83.04
2023-04-26T04:07:07.080Z,83.91
2023-04-26T04:08:07.070Z,83.35
2023-04-26T04:09:07.074Z,83.59
2023-04-26T04:10:07.121Z,84.22
2023-04-26T04:11:07.055Z,84.53
2023-04-26T04:12:07.038Z,83.95
2023-04-26T04:13:08.027Z,84.57
2023-04-26T04:14:07.019Z,84.78
2023-04-26T04:15:07.030Z,84.78
2023-04-26T04:16:07.055Z,85.10
2023-04-26T04:17:06.992Z,84.88
2023-04-26T04:18:07.079Z,85.30
2023-04-26T04:19:06.979Z,85.61
2023-04-26T04:20:06.988Z,85.72
2023-04-26T04:21:06.962Z,86.03
2023-04-26T04:22:06.957Z,86.03
2023-04-26T04:23:06.943Z,86.03
2023-04-26T04:24:06.938Z,87.07
2023-04-26T04:25:06.979Z,86.76
2023-04-26T04:26:07.017Z,86.87
2023-04-26T04:27:06.905Z,87.18
2023-04-26T04:28:06.900Z,86.61
2023-04-26T04:29:06.909Z,86.97
2023-04-26T04:30:06.886Z,87.49
2023-04-26T04:31:06.909Z,87.07
2023-04-26T04:32:06.865Z,87.70
2023-04-26T04:33:06.929Z,87.81
2023-04-26T04:34:06.836Z,87.91
2023-04-26T04:35:06.857Z,88.22
2023-04-26T04:36:06.823Z,87.91
2023-04-26T04:37:06.811Z,88.04
2023-04-26T04:38:06.800Z,87.76
2023-04-26T04:39:06.790Z,88.08
2023-04-26T04:40:07.108Z,88.29
2023-04-26T04:41:06.825Z,87.76
2023-04-26T04:42:06.769Z,88.04
2023-04-26T04:43:06.758Z,88.49
2023-04-26T04:44:06.744Z,88.18
2023-04-26T04:45:06.760Z,88.60
2023-04-26T04:46:06.748Z,88.45
2023-04-26T04:47:06.721Z,88.56
2023-04-26T04:48:06.740Z,88.24
2023-04-26T04:49:06.699Z,88.39
2023-04-26T04:50:06.725Z,88.56
2023-04-26T04:51:06.705Z,88.56
2023-04-26T04:52:06.678Z,88.45
2023-04-26T04:53:06.677Z,88.56
2023-04-26T04:54:06.657Z,88.66
2023-04-26T04:55:06.675Z,88.73
2023-04-26T04:56:38.583Z,88.20
2023-04-26T04:57:06.634Z,88.10
2023-04-26T04:58:07.691Z,88.20
2023-04-26T04:59:06.636Z,87.89
2023-04-26T05:00:06.610Z,87.75
2023-04-26T05:01:06.627Z,87.54
2023-04-26T05:02:06.599Z,87.54
2023-04-26T05:03:06.686Z,87.75
2023-04-26T05:04:07.798Z,87.50
2023-04-26T05:05:06.719Z,87.54
2023-04-26T05:06:06.590Z,87.23
2023-04-26T05:07:06.676Z,87.08
2023-04-26T05:08:06.556Z,87.29
2023-04-26T05:09:06.539Z,87.08
2023-04-26T05:10:06.542Z,86.77
2023-04-26T05:11:06.535Z,86.77
2023-04-26T05:12:06.520Z,87.08
2023-04-26T05:13:06.522Z,86.77
2023-04-26T05:14:06.521Z,86.57
2023-04-26T05:15:06.492Z,86.35
2023-04-26T05:16:06.534Z,86.73
2023-04-26T05:17:06.482Z,86.63
2023-04-26T05:18:06.503Z,86.73
2023-04-26T05:19:09.157Z,86.52
2023-04-26T05:20:07.484Z,86.42
2023-04-26T05:21:06.463Z,86.63
2023-04-26T05:22:06.437Z,86.63
2023-04-26T05:23:06.459Z,86.73
2023-04-26T05:24:06.447Z,86.73
2023-04-26T05:25:06.426Z,86.00
2023-04-26T05:26:06.434Z,85.59
2023-04-26T05:27:06.409Z,85.80
2023-04-26T05:28:06.440Z,85.65
2023-04-26T05:29:06.396Z,85.65
2023-04-26T05:30:06.389Z,85.65
2023-04-26T05:31:06.387Z,85.03
2023-04-26T05:32:06.435Z,85.13
2023-04-26T05:33:06.403Z,85.24
2023-04-26T05:34:06.353Z,84.99
2023-04-26T05:35:06.330Z,85.10
2023-04-26T05:36:06.358Z,84.78
2023-04-26T05:37:06.310Z,84.58
2023-04-26T05:38:06.315Z,84.27
2023-04-26T05:39:06.307Z,84.37
2023-04-26T05:40:06.294Z,84.47
2023-04-26T05:41:06.309Z,83.84
2023-04-26T05:42:06.301Z,83.53
2023-04-26T05:43:06.276Z,84.05
2023-04-26T05:44:06.258Z,83.81
2023-04-26T05:45:06.257Z,84.16
2023-04-26T05:46:06.318Z,84.05
2023-04-26T05:47:06.244Z,83.64
2023-04-26T05:48:06.260Z,83.81
2023-04-26T05:49:06.222Z,83.29
2023-04-26T05:50:06.207Z,83.50
2023-04-26T05:51:06.222Z,82.87
2023-04-26T05:52:06.186Z,83.15
2023-04-26T05:53:06.189Z,83.46
2023-04-26T05:54:06.170Z,82.84
2023-04-26T05:55:06.171Z,81.90
2023-04-26T05:56:06.168Z,82.21
2023-04-26T05:57:06.190Z,82.21
2023-04-26T05:58:06.153Z,82.42
2023-04-26T05:59:06.179Z,81.90
2023-04-26T06:00:06.173Z,82.01
2023-04-26T06:01:06.184Z,81.59
2023-04-26T06:02:06.147Z,81.90
2023-04-26T06:03:06.404Z,81.80
2023-04-26T06:04:07.988Z,81.70
2023-04-26T06:05:06.488Z,82.01
2023-04-26T06:06:06.192Z,81.56
2023-04-26T06:07:06.074Z,81.66
2023-04-26T06:08:06.046Z,81.56
2023-04-26T06:09:06.044Z,81.97
2023-04-26T06:10:06.037Z,81.62
2023-04-26T06:11:06.053Z,81.87
2023-04-26T06:12:06.015Z,81.30
2023-04-26T06:13:06.004Z,81.51
2023-04-26T06:14:06.214Z,81.10
2023-04-26T06:15:05.995Z,81.20
2023-04-26T06:16:05.982Z,81.20
2023-04-26T06:17:06.038Z,81.16
2023-04-26T06:18:06.981Z,80.85
2023-04-26T06:19:05.936Z,80.75
2023-04-26T06:20:05.937Z,80.96
2023-04-26T06:21:05.969Z,80.61
2023-04-26T06:22:05.914Z,80.36
2023-04-26T06:23:05.894Z,79.88
2023-04-26T06:24:05.898Z,80.16
2023-04-26T06:25:05.892Z,79.54
2023-04-26T06:26:05.891Z,79.23
2023-04-26T06:27:05.857Z,78.81
2023-04-26T06:28:05.865Z,78.81
2023-04-26T06:29:05.834Z,78.57
2023-04-26T06:30:05.831Z,78.67
2023-04-26T06:31:05.879Z,78.57
2023-04-26T06:32:05.814Z,78.53
2023-04-26T06:33:05.854Z,78.78
2023-04-26T06:34:05.936Z,78.74
2023-04-26T06:35:05.807Z,78.43
2023-04-26T06:36:05.843Z,78.33
2023-04-26T06:37:05.756Z,78.33
2023-04-26T06:38:05.737Z,78.43
2023-04-26T06:39:05.720Z,77.47
2023-04-26T06:40:05.727Z,77.47
2023-04-26T06:41:05.749Z,77.36
2023-04-26T06:42:05.707Z,76.53
2023-04-26T06:43:05.689Z,76.50
2023-04-26T06:44:05.688Z,76.18
2023-04-26T06:45:05.687Z,76.39
2023-04-26T06:46:05.684Z,76.22
2023-04-26T06:47:05.660Z,75.50
2023-04-26T06:48:05.674Z,75.57
2023-04-26T06:49:05.634Z,75.36
2023-04-26T06:50:05.899Z,75.57
2023-04-26T06:51:05.595Z,74.53
2023-04-26T06:52:05.610Z,74.63
2023-04-26T06:53:05.585Z,74.74
2023-04-26T06:54:05.571Z,74.74
2023-04-26T06:55:05.576Z,74.40
2023-04-26T06:56:05.552Z,74.19
2023-04-26T06:57:05.558Z,74.40
2023-04-26T06:58:05.531Z,74.40
2023-04-26T06:59:05.529Z,74.46
2023-04-26T07:00:05.505Z,74.05
2023-04-26T07:01:05.504Z,73.85
2023-04-26T07:02:05.587Z,72.91
2023-04-26T07:03:05.707Z,73.50
2023-04-26T07:04:05.534Z,72.47
2023-04-26T07:05:05.564Z,72.71
2023-04-26T07:06:05.450Z,72.67
2023-04-26T07:07:05.449Z,72.50
2023-04-26T07:08:05.437Z,73.39
2023-04-26T07:09:05.415Z,72.54
2023-04-26T07:10:05.408Z,72.64
2023-04-26T07:11:05.453Z,72.95
2023-04-26T07:12:05.391Z,72.64
2023-04-26T07:13:06.786Z,72.67
2023-04-26T07:14:05.411Z,72.64
2023-04-26T07:15:05.394Z,72.64
2023-04-26T07:16:05.399Z,72.23
2023-04-26T07:17:06.348Z,71.81
2023-04-26T07:18:05.347Z,70.61
2023-04-26T07:19:05.299Z,70.20
2023-04-26T07:20:05.288Z,69.82
2023-04-26T07:21:05.274Z,69.82
2023-04-26T07:22:05.305Z,71.16
2023-04-26T07:23:05.253Z,70.95
2023-04-26T07:24:05.240Z,70.85
2023-04-26T07:25:05.453Z,70.40
2023-04-26T07:26:05.310Z,70.20
2023-04-26T07:27:05.217Z,70.20
2023-04-26T07:28:05.210Z,70.85
2023-04-26T07:29:05.235Z,69.33
2023-04-26T07:30:05.370Z,70.61
2023-04-26T07:31:07.098Z,72.60
2023-04-26T07:32:05.192Z,73.98
2023-04-26T07:33:05.310Z,71.50
2023-04-26T07:34:05.157Z,69.53
2023-04-26T07:35:05.126Z,70.15
2023-04-26T07:36:05.126Z,71.15
2023-04-26T07:37:05.122Z,70.84
2023-04-26T07:38:05.150Z,68.64
2023-04-26T07:39:05.084Z,67.37
2023-04-26T07:40:05.085Z,67.27
2023-04-26T07:41:05.252Z,68.27
2023-04-26T07:42:05.105Z,67.61
2023-04-26T07:43:05.044Z,68.41
2023-04-26T07:44:05.037Z,69.13
2023-04-26T07:45:05.009Z,69.51
2023-04-26T07:46:05.063Z,69.17
2023-04-26T07:47:05.013Z,68.96
2023-04-26T07:48:05.053Z,68.35
2023-04-26T07:49:04.966Z,64.95
2023-04-26T07:50:04.981Z,64.18
2023-04-26T07:51:04.960Z,64.90
2023-04-26T07:52:04.965Z,65.06
2023-04-26T07:53:04.937Z,64.37
2023-04-26T07:54:05.155Z,66.33
2023-04-26T07:55:04.914Z,66.61
2023-04-26T07:56:04.894Z,66.61
2023-04-26T07:57:04.919Z,64.96
2023-04-26T07:58:04.879Z,65.06
2023-04-26T07:59:04.865Z,65.66
2023-04-26T08:00:04.864Z,64.90
2023-04-26T08:01:04.850Z,64.90
2023-04-26T08:02:04.884Z,66.63
2023-04-26T08:03:04.943Z,63.18
2023-04-26T08:04:05.008Z,64.34
2023-04-26T08:05:04.940Z,67.06
2023-04-26T08:06:05.052Z,62.41
2023-04-26T08:07:04.837Z,63.78
2023-04-26T08:08:04.779Z,63.78
2023-04-26T08:09:04.768Z,65.61
2023-04-26T08:10:04.913Z,65.09
2023-04-26T08:11:04.751Z,63.65
2023-04-26T08:12:04.790Z,62.85
2023-04-26T08:13:04.735Z,62.62
2023-04-26T08:14:05.511Z,62.79
2023-04-26T08:15:04.703Z,62.69
2023-04-26T08:16:04.695Z,62.15
2023-04-26T08:17:04.759Z,62.27
2023-04-26T08:18:04.729Z,61.97
2023-04-26T08:19:04.658Z,62.48
2023-04-26T08:20:04.694Z,63.00
2023-04-26T08:21:04.650Z,62.87
2023-04-26T08:22:04.674Z,62.76
2023-04-26T08:23:04.620Z,60.57
2023-04-26T08:24:04.623Z,60.36
2023-04-26T08:25:04.639Z,63.74
2023-04-26T08:26:04.713Z,58.17
2023-04-26T08:27:04.632Z,57.37
2023-04-26T08:28:04.578Z,57.11
2023-04-26T08:29:04.563Z,58.45
2023-04-26T08:30:04.563Z,58.35
2023-04-26T08:31:04.584Z,58.15
2023-04-26T08:32:04.554Z,58.66
2023-04-26T08:33:04.579Z,60.18
2023-04-26T08:34:04.511Z,59.08
2023-04-26T08:35:04.508Z,58.97
2023-04-26T08:36:04.534Z,59.56
2023-04-26T08:37:04.478Z,59.80
2023-04-26T08:38:04.475Z,59.49
2023-04-26T08:39:04.465Z,59.98
2023-04-26T08:40:05.452Z,61.04
2023-04-26T08:41:04.460Z,61.87
2023-04-26T08:42:04.467Z,60.60
2023-04-26T08:43:04.441Z,61.22
2023-04-26T08:44:04.412Z,60.60
2023-04-26T08:45:04.473Z,60.98
2023-04-26T08:46:04.440Z,60.36
2023-04-26T08:47:04.436Z,60.47
2023-04-26T08:48:04.770Z,60.75
2023-04-26T08:49:05.361Z,59.48
2023-04-26T08:50:04.367Z,59.58
2023-04-26T08:51:04.344Z,61.85
2023-04-26T08:52:04.369Z,58.89
2023-04-26T08:53:04.325Z,60.44
2023-04-26T08:54:04.921Z,58.58
2023-04-26T08:55:04.314Z,58.27
2023-04-26T08:56:04.311Z,60.51
2023-04-26T08:57:04.313Z,58.69
2023-04-26T08:58:04.292Z,59.64
2023-04-26T08:59:04.276Z,62.22
2023-04-26T09:00:04.257Z,61.01
2023-04-26T09:01:04.271Z,59.44
2023-04-26T09:02:04.302Z,55.82
2023-04-26T09:03:04.320Z,56.37
2023-04-26T09:04:04.342Z,56.44
2023-04-26T09:05:04.415Z,56.23
2023-04-26T09:06:04.996Z,57.06
2023-04-26T09:07:04.214Z,57.57
2023-04-26T09:08:04.194Z,60.26
2023-04-26T09:09:04.166Z,59.51
2023-04-26T09:10:04.159Z,60.54
2023-04-26T09:11:04.155Z,59.48
2023-04-26T09:12:04.169Z,60.21
2023-04-26T09:13:04.126Z,61.24
2023-04-26T09:14:04.220Z,59.04
2023-04-26T09:15:04.107Z,58.63
2023-04-26T09:16:05.020Z,60.89
2023-04-26T09:17:05.125Z,62.65
2023-04-26T09:18:04.108Z,62.34
2023-04-26T09:19:04.075Z,58.94
2023-04-26T09:20:06.544Z,58.76
2023-04-26T09:21:04.079Z,57.55
2023-04-26T09:22:04.058Z,58.86
2023-04-26T09:23:04.025Z,60.69
2023-04-26T09:24:04.039Z,59.77
2023-04-26T09:25:04.009Z,62.21
2023-04-26T09:26:04.013Z,62.59
2023-04-26T09:27:04.025Z,59.19
2023-04-26T09:28:04.148Z,59.30
2023-04-26T09:29:03.978Z,59.06
2023-04-26T09:30:03.965Z,59.17
2023-04-26T09:31:03.960Z,60.09
2023-04-26T09:32:03.946Z,57.73
2023-04-26T09:33:04.001Z,57.14
2023-04-26T09:34:03.938Z,61.74
2023-04-26T09:35:03.919Z,57.75
2023-04-26T09:36:03.897Z,57.54
2023-04-26T09:37:03.886Z,58.37
2023-04-26T09:38:07.866Z,56.85
2023-04-26T09:39:05.863Z,55.38
2023-04-26T09:40:03.877Z,57.44
2023-04-26T09:41:03.851Z,57.01
2023-04-26T09:42:03.843Z,53.74
2023-04-26T09:43:03.864Z,53.43
2023-04-26T09:44:03.814Z,54.56
2023-04-26T09:45:03.813Z,53.14
2023-04-26T09:46:03.851Z,54.58
2023-04-26T09:47:03.897Z,56.52
2023-04-26T09:48:03.849Z,51.29
2023-04-26T09:49:03.775Z,52.61
2023-04-26T09:50:03.770Z,53.53
2023-04-26T09:51:03.752Z,53.66
2023-04-26T09:52:03.762Z,53.41
2023-04-26T09:53:03.789Z,53.53
2023-04-26T09:54:03.728Z,54.22
2023-04-26T09:55:03.736Z,53.69
2023-04-26T09:56:03.716Z,52.76
2023-04-26T09:57:03.689Z,52.56
2023-04-26T09:58:03.697Z,51.81
2023-04-26T09:59:03.674Z,52.99
2023-04-26T10:00:03.666Z,51.98
2023-04-26T10:01:03.721Z,52.99
2023-04-26T10:02:03.779Z,51.26
2023-04-26T10:03:03.688Z,53.12
2023-04-26T10:04:03.756Z,53.12
2023-04-26T10:05:04.710Z,52.63
2023-04-26T10:06:03.611Z,53.02
2023-04-26T10:07:03.580Z,51.91
2023-04-26T10:08:03.608Z,50.57
2023-04-26T10:09:03.571Z,51.62
2023-04-26T10:10:03.561Z,53.27
2023-04-26T10:11:03.547Z,52.83
2023-04-26T10:12:03.537Z,51.55
2023-04-26T10:13:03.558Z,51.42
2023-04-26T10:14:03.531Z,51.65
2023-04-26T10:15:03.511Z,51.96
2023-04-26T10:16:03.536Z,51.84
2023-04-26T10:17:03.515Z,52.14
2023-04-26T10:18:03.569Z,53.38
2023-04-26T10:19:03.479Z,53.28
2023-04-26T10:20:03.463Z,54.41
2023-04-26T10:21:03.444Z,52.17
2023-04-26T10:22:03.444Z,51.94
2023-04-26T10:23:03.445Z,50.06
2023-04-26T10:24:03.434Z,50.06
2023-04-26T10:25:03.421Z,51.30
2023-04-26T10:26:03.397Z,50.02
2023-04-26T10:27:03.464Z,48.99
2023-04-26T10:28:03.403Z,47.67
2023-04-26T10:29:03.631Z,47.78
2023-04-26T10:30:03.360Z,47.80
2023-04-26T10:31:03.356Z,48.91
2023-04-26T10:32:03.408Z,50.68
2023-04-26T10:33:03.389Z,50.58
2023-04-26T10:34:03.330Z,50.14
2023-04-26T10:35:03.314Z,47.96
2023-04-26T10:36:03.305Z,48.25
2023-04-26T10:37:03.306Z,47.99
2023-04-26T10:38:03.299Z,48.42
2023-04-26T10:39:03.273Z,48.54
2023-04-26T10:40:03.264Z,48.36
2023-04-26T10:41:03.271Z,48.46
2023-04-26T10:42:03.249Z,50.13
2023-04-26T10:43:03.282Z,50.65
2023-04-26T10:44:03.242Z,50.36
2023-04-26T10:45:03.203Z,51.68
2023-04-26T10:46:03.229Z,50.03
2023-04-26T10:47:03.202Z,51.42
2023-04-26T10:48:03.256Z,51.62
2023-04-26T10:49:03.175Z,52.53
2023-04-26T10:50:05.408Z,51.68
2023-04-26T10:51:03.170Z,51.86
2023-04-26T10:52:03.148Z,54.00
2023-04-26T10:53:03.220Z,52.27
2023-04-26T10:54:03.118Z,50.11
2023-04-26T10:55:03.119Z,51.86
2023-04-26T10:56:03.120Z,50.44
2023-04-26T10:57:03.112Z,53.22
2023-04-26T10:58:36.904Z,51.76
2023-04-26T10:59:08.130Z,50.50
2023-04-26T11:00:04.065Z,52.01
2023-04-26T11:01:03.098Z,51.53
2023-04-26T11:02:03.046Z,52.48
2023-04-26T11:03:03.154Z,52.58
2023-04-26T11:04:03.143Z,52.48
2023-04-26T11:05:03.162Z,53.20
2023-04-26T11:06:03.055Z,52.06
2023-04-26T11:07:02.997Z,51.45
2023-04-26T11:08:02.991Z,53.69
2023-04-26T11:09:03.009Z,52.58
2023-04-26T11:10:03.005Z,51.84
2023-04-26T11:11:02.949Z,50.60
2023-04-26T11:12:02.951Z,51.73
2023-04-26T11:13:02.934Z,51.84
2023-04-26T11:14:02.957Z,50.29
2023-04-26T11:15:02.928Z,50.60
2023-04-26T11:16:02.980Z,50.60
2023-04-26T11:17:02.906Z,51.63
2023-04-26T11:18:02.956Z,52.01
2023-04-26T11:19:02.899Z,48.63
2023-04-26T11:20:02.891Z,48.63
2023-04-26T11:21:02.866Z,48.21
2023-04-26T11:22:02.855Z,48.11
2023-04-26T11:23:02.865Z,48.42
2023-04-26T11:24:02.886Z,48.52
2023-04-26T11:25:02.867Z,48.32
2023-04-26T11:26:02.858Z,51.48
2023-04-26T11:27:02.805Z,49.14
2023-04-26T11:28:02.793Z,49.68
2023-04-26T11:29:02.804Z,50.29
2023-04-26T11:30:02.781Z,49.65
2023-04-26T11:31:02.792Z,50.19
2023-04-26T11:32:02.752Z,50.60
2023-04-26T11:33:02.846Z,50.06
2023-04-26T11:34:02.769Z,52.53
2023-04-26T11:35:02.722Z,51.37
2023-04-26T11:36:02.701Z,52.51
2023-04-26T11:37:02.705Z,49.37
2023-04-26T11:38:02.724Z,50.70
2023-04-26T11:39:02.695Z,52.76
2023-04-26T11:40:02.710Z,51.94
2023-04-26T11:41:02.651Z,51.84
2023-04-26T11:42:02.644Z,51.42
2023-04-26T11:43:02.645Z,52.58
2023-04-26T11:44:02.723Z,50.32
2023-04-26T11:45:03.463Z,50.13
2023-04-26T11:46:02.637Z,50.21
2023-04-26T11:47:02.651Z,52.06
2023-04-26T11:48:02.662Z,54.10
2023-04-26T11:49:02.598Z,51.94
2023-04-26T11:50:03.571Z,53.38
2023-04-26T11:51:02.578Z,50.11
2023-04-26T11:52:02.559Z,50.11
2023-04-26T11:53:02.574Z,52.25
2023-04-26T11:54:02.557Z,50.81
2023-04-26T11:55:02.509Z,51.63
2023-04-26T11:56:02.508Z,49.88
2023-04-26T11:57:02.529Z,50.29
2023-04-26T11:58:02.490Z,50.50
2023-04-26T11:59:02.514Z,49.78
2023-04-26T12:00:02.504Z,50.16
2023-04-26T12:01:02.458Z,51.50
2023-04-26T12:02:02.459Z,49.84
2023-04-26T12:03:02.656Z,48.65
2023-04-26T12:04:02.688Z,49.88
2023-04-26T12:05:02.650Z,49.44
2023-04-26T12:06:02.510Z,48.83
2023-04-26T12:07:02.390Z,51.20
2023-04-26T12:08:02.403Z,48.63
2023-04-26T12:09:02.429Z,48.21
2023-04-26T12:10:02.376Z,48.44
2023-04-26T12:11:02.575Z,49.37
2023-04-26T12:12:02.395Z,50.21
2023-04-26T12:13:02.335Z,50.19
2023-04-26T12:14:02.354Z,51.50
2023-04-26T12:15:02.323Z,49.65
2023-04-26T12:16:05.289Z,53.12
2023-04-26T12:17:03.470Z,52.81
2023-04-26T12:18:02.327Z,50.86
2023-04-26T12:19:02.279Z,48.11
2023-04-26T12:20:02.270Z,50.14
2023-04-26T12:21:02.282Z,50.66
2023-04-26T12:22:02.259Z,48.17
2023-04-26T12:23:02.259Z,47.88
2023-04-26T12:24:02.303Z,48.91
2023-04-26T12:25:02.219Z,49.14
2023-04-26T12:26:02.324Z,49.51
2023-04-26T12:27:02.619Z,50.02
2023-04-26T12:28:03.468Z,50.63
2023-04-26T12:29:02.890Z,51.04
2023-04-26T12:30:02.188Z,50.02
2023-04-26T12:31:02.157Z,47.67
2023-04-26T12:32:02.209Z,47.96
2023-04-26T12:33:15.525Z,48.93
2023-04-26T12:34:04.149Z,48.42
2023-04-26T12:35:02.111Z,51.48
2023-04-26T12:36:02.108Z,49.52
2023-04-26T12:37:02.097Z,49.94
2023-04-26T12:38:02.083Z,50.12
2023-04-26T12:39:02.112Z,48.11
2023-04-26T12:40:02.064Z,47.88
2023-04-26T12:41:02.054Z,48.60
2023-04-26T12:42:02.032Z,52.07
2023-04-26T12:43:03.043Z,50.20
2023-04-26T12:44:02.065Z,52.23
2023-04-26T12:45:02.022Z,49.15
2023-04-26T12:46:02.062Z,50.77
2023-04-26T12:47:02.006Z,50.15
2023-04-26T12:48:02.004Z,48.18
2023-04-26T12:49:02.002Z,48.41
2023-04-26T12:50:01.971Z,51.79
2023-04-26T12:51:01.960Z,48.21
2023-04-26T12:52:01.966Z,47.59